createdAt,value
2019-03-29T00:01:51.013Z,102663.83
2019-03-29T00:04:20.865Z,102668.66
2019-03-29T00:06:50.689Z,102670.81
2019-03-29T00:09:20.418Z,102672.55
2019-03-29T00:11:50.244Z,102681.67
2019-03-29T00:14:23.287Z,102675.03
2019-03-29T00:16:52.959Z,102681.24
2019-03-29T00:19:27.895Z,102681.69
2019-03-29T00:21:57.989Z,102689.93
2019-03-29T00:24:35.544Z,102682.85
2019-03-29T00:27:05.349Z,102691.39
2019-03-29T00:29:35.084Z,102686.94
2019-03-29T00:32:10.702Z,102689.56
2019-03-29T00:34:42.301Z,102693.86
2019-03-29T00:37:12.320Z,102692.03
2019-03-29T00:39:46.737Z,102697.61
2019-03-29T00:42:21.221Z,102701.95
2019-03-29T00:45:02.949Z,102699.72
2019-03-29T00:47:58.006Z,102702.41
2019-03-29T00:50:33.495Z,102701.52
2019-03-29T00:53:09.113Z,102703.20
2019-03-29T00:55:44.840Z,102700.58
2019-03-29T00:58:28.732Z,102708.03
2019-03-29T01:01:04.204Z,102704.48
2019-03-29T01:03:38.351Z,102706.75
2019-03-29T01:06:13.366Z,102708.03
2019-03-29T01:08:42.156Z,102705.38
2019-03-29T01:11:16.876Z,102704.09
2019-03-29T01:13:54.688Z,102707.11
2019-03-29T01:16:25.883Z,102704.39
2019-03-29T01:18:55.697Z,102703.97
2019-03-29T01:21:25.461Z,102701.77
2019-03-29T01:23:57.491Z,102704.03
2019-03-29T01:26:27.441Z,102701.80
2019-03-29T01:28:57.238Z,102697.41
2019-03-29T01:31:40.244Z,102699.57
2019-03-29T01:34:13.425Z,102696.15
2019-03-29T01:36:53.905Z,102696.17
2019-03-29T01:39:25.443Z,102691.31
2019-03-29T01:41:59.173Z,102699.66
2019-03-29T01:44:28.986Z,102702.16
2019-03-29T01:47:17.047Z,102694.31
2019-03-29T01:49:46.821Z,102689.94
2019-03-29T01:52:16.556Z,102687.69
2019-03-29T01:54:46.340Z,102683.84
2019-03-29T01:57:16.079Z,102669.06
2019-03-29T01:59:45.871Z,102670.92
2019-03-29T02:02:15.634Z,102669.18
2019-03-29T02:04:45.405Z,102662.12
2019-03-29T02:07:15.180Z,102661.13
2019-03-29T02:09:44.957Z,102672.95
2019-03-29T02:12:14.729Z,102674.64
2019-03-29T02:14:45.199Z,102670.75
2019-03-29T02:17:15.217Z,102669.01
2019-03-29T02:19:44.951Z,102665.58
2019-03-29T02:22:16.292Z,102660.78
2019-03-29T02:24:46.111Z,102666.52
2019-03-29T02:27:15.902Z,102669.16
2019-03-29T02:29:45.656Z,102659.81
2019-03-29T02:32:15.452Z,102667.17
2019-03-29T02:34:47.658Z,102667.55
2019-03-29T02:37:19.487Z,102661.84
2019-03-29T02:39:48.895Z,102666.66
2019-03-29T02:42:18.676Z,102668.83
2019-03-29T02:44:48.417Z,102656.13
2019-03-29T02:47:18.181Z,102660.95
2019-03-29T02:49:47.941Z,102660.06
2019-03-29T02:52:17.704Z,102653.89
2019-03-29T02:54:47.481Z,102653.50
2019-03-29T02:57:17.297Z,102655.24
2019-03-29T02:59:47.147Z,102657.84
2019-03-29T03:02:16.913Z,102652.27
2019-03-29T03:07:46.888Z,102653.67
2019-03-29T03:10:25.400Z,102658.09
2019-03-29T03:13:26.377Z,102656.78
2019-03-29T03:16:00.233Z,102658.47
2019-03-29T03:18:35.124Z,102666.33
2019-03-29T03:21:10.434Z,102672.52
2019-03-29T03:23:45.326Z,102667.36
2019-03-29T03:26:24.306Z,102666.92
2019-03-29T03:29:03.750Z,102663.84
2019-03-29T03:31:40.955Z,102662.95
2019-03-29T03:34:16.450Z,102678.72
2019-03-29T03:36:52.257Z,102680.06
2019-03-29T03:39:31.952Z,102678.81
2019-03-29T03:42:04.808Z,102673.58
2019-03-29T03:44:39.767Z,102668.31
2019-03-29T03:47:17.136Z,102665.21
2019-03-29T03:49:52.400Z,102668.21
2019-03-29T03:52:27.547Z,102672.92
2019-03-29T03:55:02.429Z,102678.58
2019-03-29T03:57:39.026Z,102683.44
2019-03-29T04:00:14.197Z,102668.50
2019-03-29T04:02:42.918Z,102671.13
2019-03-29T04:05:18.378Z,102675.06
2019-03-29T04:07:47.130Z,102671.98
2019-03-29T04:10:20.688Z,102675.06
2019-03-29T04:12:49.432Z,102676.41
2019-03-29T04:15:22.571Z,102678.61
2019-03-29T04:17:55.743Z,102676.83
2019-03-29T04:20:31.563Z,102675.48
2019-03-29T04:23:05.292Z,102678.55
2019-03-29T04:25:41.105Z,102677.66
2019-03-29T04:28:16.731Z,102689.03
2019-03-29T04:30:52.283Z,102694.73
2019-03-29T04:33:27.522Z,102686.40
2019-03-29T04:36:02.863Z,102688.63
2019-03-29T04:38:38.404Z,102685.94
2019-03-29T04:41:08.196Z,102687.72
2019-03-29T04:43:37.956Z,102684.66
2019-03-29T04:46:07.846Z,102688.60
2019-03-29T04:48:37.649Z,102692.97
2019-03-29T04:51:07.425Z,102692.12
2019-03-29T04:53:37.183Z,102698.19
2019-03-29T04:56:06.973Z,102698.65
2019-03-29T04:58:36.711Z,102701.70
2019-03-29T05:01:06.496Z,102696.42
2019-03-29T05:03:36.255Z,102702.56
2019-03-29T05:06:06.030Z,102706.99
2019-03-29T05:08:35.769Z,102706.14
2019-03-29T05:11:05.544Z,102704.37
2019-03-29T05:13:35.295Z,102706.11
2019-03-29T05:16:05.077Z,102706.99
2019-03-29T05:18:34.828Z,102709.62
2019-03-29T05:21:04.623Z,102714.91
2019-03-29T05:23:34.392Z,102716.22
2019-03-29T05:26:04.287Z,102711.85
2019-03-29T05:28:34.046Z,102717.53
2019-03-29T05:31:05.490Z,102718.84
2019-03-29T05:33:35.232Z,102718.54
2019-03-29T05:36:05.005Z,102717.72
2019-03-29T05:38:34.744Z,102722.17
2019-03-29T05:41:04.523Z,102719.18
2019-03-29T05:43:34.254Z,102722.78
2019-03-29T05:46:04.043Z,102718.00
2019-03-29T05:48:33.792Z,102712.77
2019-03-29T05:51:03.570Z,102720.20
2019-03-29T05:53:33.310Z,102721.92
2019-03-29T05:56:03.104Z,102715.52
2019-03-29T05:58:32.824Z,102719.56
2019-03-29T06:01:02.596Z,102721.33
2019-03-29T06:03:32.340Z,102721.02
2019-03-29T06:06:02.121Z,102717.59
2019-03-29T06:08:31.864Z,102721.14
2019-03-29T06:11:01.670Z,102719.38
2019-03-29T06:13:31.423Z,102716.59
2019-03-29T06:16:01.205Z,102710.03
2019-03-29T06:18:31.067Z,102716.03
2019-03-29T06:21:00.845Z,102710.69
2019-03-29T06:23:33.093Z,102703.22
2019-03-29T06:26:02.879Z,102707.73
2019-03-29T06:28:32.632Z,102706.73
2019-03-29T06:31:02.405Z,102701.73
2019-03-29T06:33:33.587Z,102709.39
2019-03-29T06:36:03.595Z,102703.41
2019-03-29T06:38:33.423Z,102706.12
2019-03-29T06:41:03.757Z,102707.48
2019-03-29T06:43:34.756Z,102709.39
2019-03-29T06:46:04.491Z,102704.52
2019-03-29T06:48:34.244Z,102699.70
2019-03-29T06:51:04.033Z,102705.00
2019-03-29T06:53:33.784Z,102702.92
2019-03-29T06:56:03.562Z,102706.12
2019-03-29T06:58:33.322Z,102706.67
2019-03-29T07:01:03.102Z,102713.16
2019-03-29T07:03:32.844Z,102711.44
2019-03-29T07:06:02.647Z,102714.31
2019-03-29T07:08:32.409Z,102712.68
2019-03-29T07:11:16.153Z,102715.83
2019-03-29T07:13:33.618Z,102719.06
2019-03-29T07:16:03.405Z,102713.73
2019-03-29T07:18:33.153Z,102714.50
2019-03-29T07:21:02.919Z,102721.77
2019-03-29T07:23:32.656Z,102717.11
2019-03-29T07:26:02.743Z,102715.45
2019-03-29T07:28:32.494Z,102708.52
2019-03-29T07:31:02.272Z,102709.78
2019-03-29T07:33:32.015Z,102709.30
2019-03-29T07:36:02.316Z,102713.45
2019-03-29T07:38:32.685Z,102713.03
2019-03-29T07:41:03.577Z,102709.91
2019-03-29T07:43:33.615Z,102705.59
2019-03-29T07:46:03.403Z,102705.09
2019-03-29T07:48:33.992Z,102713.89
2019-03-29T07:51:04.236Z,102706.56
2019-03-29T07:53:35.190Z,102707.39
2019-03-29T07:56:05.170Z,102707.84
2019-03-29T07:58:35.484Z,102705.56
2019-03-29T08:01:05.936Z,102699.77
2019-03-29T08:03:35.675Z,102706.80
2019-03-29T08:06:05.439Z,102708.95
2019-03-29T08:08:35.291Z,102704.64
2019-03-29T08:11:05.132Z,102702.55
2019-03-29T08:13:34.869Z,102702.51
2019-03-29T08:16:06.656Z,102704.17
2019-03-29T08:18:37.380Z,102706.41
2019-03-29T08:21:07.151Z,102701.62
2019-03-29T08:23:36.885Z,102699.12
2019-03-29T08:26:06.677Z,102698.19
2019-03-29T08:28:36.425Z,102701.14
2019-03-29T08:31:06.195Z,102696.34
2019-03-29T08:33:36.512Z,102700.84
2019-03-29T08:36:06.675Z,102703.52
2019-03-29T08:38:37.431Z,102703.61
2019-03-29T08:41:07.527Z,102701.45
2019-03-29T08:43:38.768Z,102698.33
2019-03-29T08:46:09.981Z,102700.08
2019-03-29T08:48:40.231Z,102703.99
2019-03-29T08:51:10.002Z,102699.15
2019-03-29T08:53:39.731Z,102691.28
2019-03-29T08:56:09.512Z,102694.05
2019-03-29T08:58:39.233Z,102695.86
2019-03-29T09:01:09.014Z,102702.55
2019-03-29T09:03:38.748Z,102702.95
2019-03-29T09:06:08.519Z,102698.98
2019-03-29T09:08:38.256Z,102702.91
2019-03-29T09:11:08.016Z,102698.53
2019-03-29T09:13:37.751Z,102691.58
2019-03-29T09:16:07.515Z,102694.25
2019-03-29T09:18:37.261Z,102696.42
2019-03-29T09:21:07.033Z,102693.36
2019-03-29T09:23:36.821Z,102694.70
2019-03-29T09:26:06.585Z,102699.12
2019-03-29T09:28:36.327Z,102691.67
2019-03-29T09:31:06.101Z,102694.28
2019-03-29T09:33:35.849Z,102693.83
2019-03-29T09:36:05.621Z,102694.11
2019-03-29T09:38:35.346Z,102697.67
2019-03-29T09:41:05.126Z,102700.41
2019-03-29T09:43:34.875Z,102701.32
2019-03-29T09:46:04.650Z,102699.60
2019-03-29T09:48:34.883Z,102693.02
2019-03-29T09:51:04.801Z,102693.44
2019-03-29T09:53:34.536Z,102697.42
2019-03-29T09:56:04.316Z,102695.64
2019-03-29T09:58:34.048Z,102694.79
2019-03-29T10:01:03.829Z,102694.79
2019-03-29T10:03:33.576Z,102692.58
2019-03-29T10:06:03.351Z,102691.27
2019-03-29T10:08:33.078Z,102696.98
2019-03-29T10:11:02.888Z,102693.03
2019-03-29T10:13:32.635Z,102692.58
2019-03-29T10:16:02.433Z,102692.16
2019-03-29T10:18:32.192Z,102683.78
2019-03-29T10:21:02.006Z,102686.41
2019-03-29T10:23:31.797Z,102681.59
2019-03-29T10:26:01.569Z,102684.22
2019-03-29T10:28:31.343Z,102678.48
2019-03-29T10:31:01.079Z,102677.19
2019-03-29T10:33:30.870Z,102675.42
2019-03-29T10:36:00.707Z,102674.95
2019-03-29T10:38:30.905Z,102667.42
2019-03-29T10:41:00.672Z,102663.02
2019-03-29T10:43:30.439Z,102659.48
2019-03-29T10:46:00.228Z,102658.16
2019-03-29T10:48:29.995Z,102654.98
2019-03-29T10:51:01.183Z,102654.49
2019-03-29T10:53:30.968Z,102648.75
2019-03-29T10:56:02.137Z,102643.48
2019-03-29T10:58:31.908Z,102640.37
2019-03-29T11:01:01.664Z,102635.49
2019-03-29T11:03:31.454Z,102636.30
2019-03-29T11:06:01.195Z,102640.20
2019-03-29T11:08:30.964Z,102643.30
2019-03-29T11:11:00.720Z,102639.87
2019-03-29T11:13:30.482Z,102632.38
2019-03-29T11:16:00.241Z,102635.72
2019-03-29T11:18:30.029Z,102629.84
2019-03-29T11:20:59.766Z,102627.11
2019-03-29T11:23:29.540Z,102628.05
2019-03-29T11:25:59.280Z,102625.34
2019-03-29T11:28:29.064Z,102620.44
2019-03-29T11:30:58.897Z,102623.08
2019-03-29T11:33:28.673Z,102623.53
2019-03-29T11:35:58.423Z,102622.20
2019-03-29T11:38:28.187Z,102623.91
2019-03-29T11:40:57.925Z,102616.34
2019-03-29T11:43:27.720Z,102609.83
2019-03-29T11:45:57.445Z,102608.93
2019-03-29T11:48:29.627Z,102611.97
2019-03-29T11:50:58.675Z,102603.84
2019-03-29T11:53:28.559Z,102605.00
2019-03-29T11:55:58.292Z,102607.20
2019-03-29T11:58:28.098Z,102601.08
2019-03-29T12:00:57.837Z,102594.44
2019-03-29T12:03:27.655Z,102590.92
2019-03-29T12:05:57.402Z,102587.27
2019-03-29T12:08:27.177Z,102584.47
2019-03-29T12:10:56.928Z,102582.06
2019-03-29T12:13:35.052Z,102579.10
2019-03-29T12:15:58.135Z,102571.41
2019-03-29T12:18:27.923Z,102561.55
2019-03-29T12:20:57.663Z,102561.11
2019-03-29T12:23:27.445Z,102552.09
2019-03-29T12:25:57.193Z,102550.70
2019-03-29T12:28:26.967Z,102551.37
2019-03-29T12:30:56.720Z,102552.42
2019-03-29T12:33:26.500Z,102545.76
2019-03-29T12:35:56.241Z,102543.03
2019-03-29T12:38:26.029Z,102536.20
2019-03-29T12:40:55.779Z,102540.52
2019-03-29T12:43:25.648Z,102530.39
2019-03-29T12:45:55.391Z,102523.97
2019-03-29T12:48:25.184Z,102520.41
2019-03-29T12:50:54.914Z,102521.47
2019-03-29T12:53:24.695Z,102525.45
2019-03-29T12:55:54.450Z,102515.20
2019-03-29T12:58:24.229Z,102514.41
2019-03-29T13:00:53.959Z,102510.73
2019-03-29T13:03:25.345Z,102519.56
2019-03-29T13:05:55.099Z,102506.88
2019-03-29T13:08:24.883Z,102501.05
2019-03-29T13:10:54.835Z,102500.16
2019-03-29T13:13:24.614Z,102492.08
2019-03-29T13:15:54.361Z,102489.35
2019-03-29T13:18:24.141Z,102487.67
2019-03-29T13:20:53.869Z,102482.80
2019-03-29T13:23:23.638Z,102489.68
2019-03-29T13:25:53.375Z,102484.02
2019-03-29T13:28:23.166Z,102485.85
2019-03-29T13:30:52.905Z,102486.55
2019-03-29T13:33:22.688Z,102482.65
2019-03-29T13:35:52.439Z,102483.52
2019-03-29T13:38:22.216Z,102479.27
2019-03-29T13:40:51.964Z,102484.17
2019-03-29T13:43:21.755Z,102475.27
2019-03-29T13:45:51.519Z,102468.77
2019-03-29T13:48:21.293Z,102472.31
2019-03-29T13:50:51.054Z,102470.17
2019-03-29T13:53:20.839Z,102462.61
2019-03-29T13:55:50.595Z,102464.42
2019-03-29T13:58:20.405Z,102463.13
2019-03-29T14:00:50.155Z,102456.92
2019-03-29T14:03:19.974Z,102446.84
2019-03-29T14:05:49.718Z,102449.07
2019-03-29T14:08:19.519Z,102445.66
2019-03-29T14:10:49.256Z,102446.98
2019-03-29T14:13:19.742Z,102445.54
2019-03-29T14:15:49.684Z,102440.30
2019-03-29T14:18:19.528Z,102439.41
2019-03-29T14:20:49.411Z,102440.26
2019-03-29T14:23:19.171Z,102433.25
2019-03-29T14:25:48.977Z,102428.45
2019-03-29T14:28:18.738Z,102426.19
2019-03-29T14:30:48.547Z,102432.50
2019-03-29T14:33:18.290Z,102424.09
2019-03-29T14:35:48.142Z,102420.52
2019-03-29T14:38:17.898Z,102412.18
2019-03-29T14:40:47.686Z,102410.86
2019-03-29T14:43:17.459Z,102410.87
2019-03-29T14:45:47.197Z,102412.19
2019-03-29T14:48:16.988Z,102411.28
2019-03-29T14:50:46.747Z,102406.44
2019-03-29T14:53:16.545Z,102406.74
2019-03-29T14:55:46.292Z,102406.37
2019-03-29T14:58:17.333Z,102397.91
2019-03-29T15:00:48.708Z,102397.22
2019-03-29T15:03:18.935Z,102398.56
2019-03-29T15:05:48.822Z,102399.37
2019-03-29T15:08:18.620Z,102400.77
2019-03-29T15:10:48.401Z,102384.06
2019-03-29T15:13:18.318Z,102390.25
2019-03-29T15:15:48.214Z,102385.89
2019-03-29T15:18:18.088Z,102384.95
2019-03-29T15:20:53.836Z,102386.00
2019-03-29T15:23:19.331Z,102391.36
2019-03-29T15:25:49.127Z,102384.35
2019-03-29T15:28:18.865Z,102382.27
2019-03-29T15:30:52.374Z,102373.11
2019-03-29T15:33:21.527Z,102377.58
2019-03-29T15:35:51.322Z,102374.14
2019-03-29T15:38:21.075Z,102377.72
2019-03-29T15:40:50.864Z,102371.94
2019-03-29T15:43:20.615Z,102363.52
2019-03-29T15:45:50.403Z,102366.59
2019-03-29T15:48:20.169Z,102362.64
2019-03-29T15:50:49.939Z,102360.44
2019-03-29T15:53:19.679Z,102357.73
2019-03-29T15:55:49.580Z,102356.45
2019-03-29T15:58:19.333Z,102359.11
2019-03-29T16:00:49.151Z,102348.97
2019-03-29T16:03:18.887Z,102355.13
2019-03-29T16:05:48.788Z,102354.70
2019-03-29T16:08:18.561Z,102351.66
2019-03-29T16:10:48.389Z,102346.32
2019-03-29T16:13:19.215Z,102354.31
2019-03-29T16:15:49.021Z,102349.06
2019-03-29T16:18:18.806Z,102347.75
2019-03-29T16:20:48.626Z,102347.80
2019-03-29T16:23:18.418Z,102353.08
2019-03-29T16:25:48.202Z,102343.42
2019-03-29T16:28:17.991Z,102340.80
2019-03-29T16:30:47.729Z,102339.91
2019-03-29T16:33:17.522Z,102341.27
2019-03-29T16:35:47.386Z,102343.05
2019-03-29T16:38:17.172Z,102339.96
2019-03-29T16:40:46.948Z,102337.77
2019-03-29T16:43:16.788Z,102336.08
2019-03-29T16:45:48.229Z,102331.23
2019-03-29T16:48:18.077Z,102330.35
2019-03-29T16:50:47.828Z,102327.70
2019-03-29T16:53:17.646Z,102329.03
2019-03-29T16:55:47.413Z,102318.46
2019-03-29T16:58:17.210Z,102323.31
2019-03-29T17:00:46.991Z,102321.11
2019-03-29T17:03:16.760Z,102319.34
2019-03-29T17:05:46.546Z,102319.83
2019-03-29T17:08:16.318Z,102318.98
2019-03-29T17:10:49.133Z,102316.38
2019-03-29T17:13:18.885Z,102312.38
2019-03-29T17:16:01.163Z,102307.97
2019-03-29T17:18:29.058Z,102305.81
2019-03-29T17:20:51.618Z,102308.93
2019-03-29T17:23:21.386Z,102302.77
2019-03-29T17:25:52.748Z,102305.85
2019-03-29T17:28:22.502Z,102310.25
2019-03-29T17:30:59.815Z,102308.09
2019-03-29T17:33:29.555Z,102303.69
2019-03-29T17:36:02.110Z,102306.33
2019-03-29T17:38:31.870Z,102307.25
2019-03-29T17:41:01.680Z,102302.40
2019-03-29T17:43:31.424Z,102302.44
2019-03-29T17:46:15.126Z,102308.63
2019-03-29T17:48:32.689Z,102304.67
2019-03-29T17:51:02.513Z,102304.23
2019-03-29T17:53:32.278Z,102304.67
2019-03-29T17:56:02.105Z,102302.91
2019-03-29T17:58:31.865Z,102302.91
2019-03-29T18:01:03.228Z,102303.38
2019-03-29T18:03:32.959Z,102303.83
2019-03-29T18:06:04.206Z,102302.98
2019-03-29T18:08:34.062Z,102298.16
2019-03-29T18:11:03.894Z,102306.50
2019-03-29T18:13:33.672Z,102305.64
2019-03-29T18:16:03.520Z,102304.33
2019-03-29T18:18:33.299Z,102307.41
2019-03-29T18:21:03.139Z,102306.09
2019-03-29T18:23:32.973Z,102314.89
2019-03-29T18:26:04.205Z,102300.80
2019-03-29T18:28:38.011Z,102305.64
2019-03-29T18:31:16.567Z,102308.31
2019-03-29T18:33:47.986Z,102310.95
2019-03-29T18:36:22.659Z,102301.27
2019-03-29T18:38:51.174Z,102297.34
2019-03-29T18:41:26.382Z,102301.71
2019-03-29T18:43:56.492Z,102294.70
2019-03-29T18:46:26.335Z,102300.44
2019-03-29T18:48:56.160Z,102300.91
2019-03-29T18:51:31.995Z,102301.35
2019-03-29T18:54:01.790Z,102301.36
2019-03-29T18:56:33.170Z,102304.43
2019-03-29T18:59:02.964Z,102307.52
2019-03-29T19:01:32.904Z,102299.59
2019-03-29T19:04:02.716Z,102306.19
2019-03-29T19:06:32.631Z,102297.42
2019-03-29T19:09:04.778Z,102302.28
2019-03-29T19:11:37.776Z,102299.64
2019-03-29T19:14:07.935Z,102291.69
2019-03-29T19:16:37.747Z,102293.04
2019-03-29T19:19:10.214Z,102294.79
2019-03-29T19:21:39.028Z,102294.81
2019-03-29T19:24:08.899Z,102296.15
2019-03-29T19:26:38.832Z,102294.84
2019-03-29T21:14:37.536Z,102235.63
2019-03-29T21:24:27.906Z,102236.50
2019-03-29T21:39:49.723Z,102225.08
2019-03-29T21:42:34.973Z,102222.44
2019-03-29T21:45:27.957Z,102225.09
2019-03-29T21:54:09.226Z,102212.35
2019-03-29T21:56:50.395Z,102210.59
2019-03-29T21:59:27.351Z,102214.11
2019-03-29T22:02:06.339Z,102206.63
2019-03-29T22:07:36.407Z,102209.27
2019-03-29T22:10:12.611Z,102207.97
2019-03-29T22:15:48.304Z,102207.95
2019-03-29T22:22:12.766Z,102205.33
2019-03-29T22:24:06.022Z,102196.98
2019-03-29T22:26:40.534Z,102197.84
2019-03-29T22:29:10.442Z,102200.92
2019-03-29T22:31:40.183Z,102198.25
2019-03-29T22:34:09.963Z,102197.84
2019-03-29T22:36:39.713Z,102192.92
2019-03-29T22:39:09.481Z,102183.68
2019-03-29T22:41:41.122Z,102186.30
2019-03-29T22:44:10.883Z,102180.59
2019-03-29T22:46:40.630Z,102180.13
2019-03-29T22:49:10.391Z,102177.89
2019-03-29T22:51:40.122Z,102181.77
2019-03-29T22:54:09.888Z,102183.49
2019-03-29T22:56:39.644Z,102180.40
2019-03-29T22:59:09.418Z,102179.00
2019-03-29T23:01:41.771Z,102179.41
2019-03-29T23:04:11.544Z,102175.83
2019-03-29T23:06:41.385Z,102176.71
2019-03-29T23:09:12.011Z,102169.22
2019-03-29T23:11:41.991Z,102166.96
2019-03-29T23:14:11.769Z,102166.47
2019-03-29T23:16:41.502Z,102161.22
2019-03-29T23:19:11.278Z,102158.95
2019-03-29T23:21:41.025Z,102155.84
2019-03-29T23:24:10.804Z,102158.84
2019-03-29T23:26:40.540Z,102157.03
2019-03-29T23:29:10.348Z,102152.13
2019-03-29T23:31:40.089Z,102149.51
2019-03-29T23:34:09.866Z,102151.58
2019-03-29T23:36:39.644Z,102151.09
2019-03-29T23:39:09.405Z,102151.91
2019-03-29T23:41:39.170Z,102159.73
2019-03-29T23:44:08.912Z,102158.73
2019-03-29T23:46:38.792Z,102160.97
2019-03-29T23:49:20.322Z,102165.72
2019-03-29T23:51:40.017Z,102155.58
2019-03-29T23:54:09.854Z,102162.52
2019-03-29T23:56:39.678Z,102159.44
2019-03-29T23:59:10.530Z,102157.61
